createdAt,value
2022-12-11T00:01:12.406Z,-1.70
2022-12-11T00:03:45.877Z,-1.86
2022-12-11T00:06:18.384Z,-1.76
2022-12-11T00:08:49.446Z,-1.69
2022-12-11T00:11:20.209Z,-1.63
2022-12-11T00:13:53.995Z,-1.71
2022-12-11T00:16:27.064Z,-1.74
2022-12-11T00:18:58.272Z,-1.78
2022-12-11T00:21:29.536Z,-1.81
2022-12-11T00:24:04.501Z,-1.80
2022-12-11T00:26:45.638Z,-1.76
2022-12-11T00:29:24.802Z,-1.88
2022-12-11T00:32:09.024Z,-1.76
2022-12-11T00:34:46.237Z,-1.68
2022-12-11T00:37:25.486Z,-1.81
2022-12-11T00:39:58.238Z,-1.79
2022-12-11T00:42:40.640Z,-1.79
2022-12-11T00:45:22.595Z,-1.79
2022-12-11T00:47:54.122Z,-1.83
2022-12-11T00:50:29.567Z,-1.77
2022-12-11T00:53:01.954Z,-1.74
2022-12-11T00:55:58.585Z,-1.77
2022-12-11T01:01:58.684Z,-1.84
2022-12-11T01:04:34.969Z,-1.86
2022-12-11T01:11:34.548Z,-1.88
2022-12-11T01:14:11.733Z,-1.86
2022-12-11T01:16:49.999Z,-1.84
2022-12-11T01:19:34.284Z,-1.88
2022-12-11T01:22:04.507Z,-1.93
2022-12-11T01:24:36.261Z,-1.88
2022-12-11T01:27:17.207Z,-1.93
2022-12-11T01:30:08.279Z,-1.97
2022-12-11T01:43:43.389Z,-1.93
2022-12-11T01:46:15.450Z,-1.92
2022-12-11T01:48:46.126Z,-1.93
2022-12-11T01:51:21.910Z,-1.87
2022-12-11T01:54:02.147Z,-1.91
2022-12-11T01:56:37.495Z,-1.97
2022-12-11T01:59:16.574Z,-1.93
2022-12-11T02:02:22.515Z,-1.96
2022-12-11T02:04:57.255Z,-1.97
2022-12-11T02:07:27.755Z,-2.06
2022-12-11T02:10:02.022Z,-2.10
2022-12-11T02:12:43.627Z,-1.99
2022-12-11T02:15:21.050Z,-2.06
2022-12-11T02:17:58.177Z,-2.02
2022-12-11T02:20:34.873Z,-2.16
2022-12-11T02:23:46.628Z,-1.99
2022-12-11T02:26:37.053Z,-2.00
2022-12-11T02:29:32.505Z,-2.07
2022-12-11T02:35:46.867Z,-2.19
2022-12-11T02:38:24.066Z,-2.07
2022-12-11T02:40:56.863Z,-2.14
2022-12-11T02:43:28.491Z,-2.07
2022-12-11T02:46:04.950Z,-2.06
2022-12-11T02:48:36.708Z,-2.13
2022-12-11T02:51:11.110Z,-2.09
2022-12-11T02:53:45.014Z,-2.15
2022-12-11T02:56:21.773Z,-2.23
2022-12-11T02:59:09.815Z,-2.20
2022-12-11T03:01:42.662Z,-2.15
2022-12-11T03:04:13.239Z,-2.23
2022-12-11T03:06:48.479Z,-2.12
2022-12-11T03:09:18.855Z,-2.03
2022-12-11T03:11:49.121Z,-2.05
2022-12-11T03:14:20.045Z,-2.11
2022-12-11T03:17:14.187Z,-2.21
2022-12-11T03:20:36.614Z,-2.09
2022-12-11T03:26:18.790Z,-2.04
2022-12-11T03:28:53.962Z,-2.07
2022-12-11T03:31:45.958Z,-2.14
2022-12-11T03:34:22.721Z,-2.09
2022-12-11T03:36:54.527Z,-2.14
2022-12-11T03:39:32.259Z,-2.17
2022-12-11T03:42:05.792Z,-2.09
2022-12-11T03:44:51.345Z,-2.10
2022-12-11T03:47:24.806Z,-2.04
2022-12-11T03:49:56.586Z,-2.06
2022-12-11T03:52:30.068Z,-2.09
2022-12-11T03:55:08.036Z,-2.07
2022-12-11T03:57:44.549Z,-2.14
2022-12-11T04:00:18.184Z,-2.17
2022-12-11T04:03:13.237Z,-2.11
2022-12-11T04:05:45.459Z,-2.05
2022-12-11T04:08:16.140Z,-2.05
2022-12-11T04:10:48.824Z,-2.07
2022-12-11T04:13:19.164Z,-2.01
2022-12-11T04:15:48.971Z,-2.04
2022-12-11T04:18:31.722Z,-2.14
2022-12-11T04:21:14.125Z,-2.09
2022-12-11T04:23:56.883Z,-2.11
2022-12-11T04:26:29.731Z,-2.18
2022-12-11T04:29:00.068Z,-2.10
2022-12-11T04:31:30.169Z,-2.21
2022-12-11T04:34:00.755Z,-2.06
2022-12-11T04:36:30.891Z,-2.07
2022-12-11T04:39:01.271Z,-2.08
2022-12-11T04:41:34.234Z,-2.08
2022-12-11T04:44:04.780Z,-2.14
2022-12-11T04:46:35.406Z,-2.06
2022-12-11T04:49:06.047Z,-2.15
2022-12-11T04:51:36.215Z,-2.10
2022-12-11T04:54:06.940Z,-2.10
2022-12-11T04:56:39.498Z,-2.20
2022-12-11T04:59:09.916Z,-2.15
2022-12-11T05:01:41.087Z,-2.12
2022-12-11T05:04:11.357Z,-2.09
2022-12-11T05:06:42.655Z,-2.12
2022-12-11T05:09:14.558Z,-2.09
2022-12-11T05:11:48.460Z,-2.09
2022-12-11T05:14:18.801Z,-2.11
2022-12-11T05:16:49.256Z,-2.06
2022-12-11T05:19:20.085Z,-2.07
2022-12-11T05:21:50.430Z,-2.08
2022-12-11T05:24:21.366Z,-2.06
2022-12-11T05:26:54.279Z,-2.07
2022-12-11T05:29:24.898Z,-2.05
2022-12-11T05:31:55.201Z,-2.03
2022-12-11T05:34:25.785Z,-2.07
2022-12-11T05:36:56.086Z,-2.04
2022-12-11T05:39:26.717Z,-2.01
2022-12-11T05:41:59.677Z,-2.04
2022-12-11T05:44:30.303Z,-2.08
2022-12-11T05:47:00.381Z,-2.11
2022-12-11T05:49:31.277Z,-2.14
2022-12-11T05:52:01.286Z,-2.09
2022-12-11T05:54:31.720Z,-2.06
2022-12-11T05:57:04.239Z,-2.11
2022-12-11T05:59:34.510Z,-2.08
2022-12-11T06:02:04.685Z,-2.11
2022-12-11T06:04:34.989Z,-2.12
2022-12-11T06:07:05.184Z,-2.13
2022-12-11T06:09:35.574Z,-2.08
2022-12-11T06:12:08.461Z,-2.14
2022-12-11T06:14:38.882Z,-2.15
2022-12-11T06:17:08.876Z,-2.07
2022-12-11T06:19:39.483Z,-2.04
2022-12-11T06:22:09.481Z,-2.03
2022-12-11T06:24:39.966Z,-2.01
2022-12-11T06:27:31.833Z,-2.03
2022-12-11T06:30:02.151Z,-1.99
2022-12-11T06:32:32.277Z,-2.02
2022-12-11T06:35:03.170Z,-1.99
2022-12-11T06:37:35.119Z,-2.03
2022-12-11T06:40:06.254Z,-2.01
2022-12-11T06:42:38.990Z,-2.01
2022-12-11T06:45:15.088Z,-2.02
2022-12-11T06:47:46.843Z,-1.99
2022-12-11T06:50:17.337Z,-2.04
2022-12-11T06:52:50.158Z,-2.04
2022-12-11T06:55:20.686Z,-2.05
2022-12-11T06:57:53.250Z,-2.06
2022-12-11T07:00:25.929Z,-2.01
2022-12-11T07:02:56.288Z,-2.01
2022-12-11T07:05:26.899Z,-2.03
2022-12-11T07:07:57.321Z,-2.01
2022-12-11T07:10:27.955Z,-1.97
2022-12-11T07:13:00.722Z,-2.01
2022-12-11T07:15:31.072Z,-1.94
2022-12-11T07:18:04.133Z,-1.97
2022-12-11T07:20:34.657Z,-1.98
2022-12-11T07:23:04.683Z,-1.95
2022-12-11T07:25:35.001Z,-1.92
2022-12-11T07:28:10.089Z,-1.89
2022-12-11T07:30:42.681Z,-1.90
2022-12-11T07:33:15.572Z,-1.88
2022-12-11T07:35:45.884Z,-1.89
2022-12-11T07:38:15.857Z,-1.88
2022-12-11T07:40:46.121Z,-1.86
2022-12-11T07:43:18.703Z,-1.86
2022-12-11T07:45:55.752Z,-1.91
2022-12-11T07:48:26.301Z,-1.93
2022-12-11T07:50:57.065Z,-1.98
2022-12-11T07:53:27.401Z,-2.04
2022-12-11T07:56:04.361Z,-2.07
2022-12-11T07:58:39.076Z,-2.06
2022-12-11T08:01:15.058Z,-2.05
2022-12-11T08:03:45.456Z,-2.08
2022-12-11T08:06:15.962Z,-2.11
2022-12-11T08:08:47.320Z,-2.10
2022-12-11T08:11:18.586Z,-2.15
2022-12-11T08:13:51.251Z,-2.11
2022-12-11T08:16:22.417Z,-2.10
2022-12-11T08:18:55.589Z,-2.17
2022-12-11T08:21:27.631Z,-2.20
2022-12-11T08:23:58.281Z,-2.23
2022-12-11T08:26:30.229Z,-2.24
2022-12-11T08:29:04.841Z,-2.23
2022-12-11T08:31:35.500Z,-2.21
2022-12-11T08:34:06.605Z,-2.21
2022-12-11T08:36:37.030Z,-2.21
2022-12-11T08:39:07.230Z,-2.20
2022-12-11T08:41:38.019Z,-2.19
2022-12-11T08:44:16.991Z,-2.14
2022-12-11T08:46:48.191Z,-2.14
2022-12-11T08:49:18.332Z,-2.17
2022-12-11T08:51:48.898Z,-2.19
2022-12-11T08:54:18.933Z,-2.20
2022-12-11T08:56:57.767Z,-2.19
2022-12-11T08:59:31.005Z,-2.18
2022-12-11T09:02:01.451Z,-2.18
2022-12-11T09:04:31.515Z,-2.16
2022-12-11T09:07:01.882Z,-2.11
2022-12-11T09:09:31.970Z,-2.11
2022-12-11T09:12:04.645Z,-2.08
2022-12-11T09:14:37.946Z,-2.08
2022-12-11T09:17:08.916Z,-2.07
2022-12-11T09:19:38.846Z,-2.06
2022-12-11T09:22:11.232Z,-2.08
2022-12-11T09:24:41.512Z,-2.08
2022-12-11T09:27:11.834Z,-2.07
2022-12-11T09:29:45.018Z,-2.04
2022-12-11T09:32:15.758Z,-2.06
2022-12-11T09:34:45.804Z,-2.05
2022-12-11T09:37:16.716Z,-2.01
2022-12-11T09:39:48.117Z,-2.01
2022-12-11T09:42:23.278Z,-1.98
2022-12-11T09:45:00.093Z,-1.96
2022-12-11T09:47:44.155Z,-1.96
2022-12-11T09:50:28.779Z,-1.95
2022-12-11T09:53:15.765Z,-1.97
2022-12-11T09:55:52.716Z,-1.94
2022-12-11T09:58:34.297Z,-1.87
2022-12-11T10:01:17.221Z,-1.86
2022-12-11T10:04:21.445Z,-1.89
2022-12-11T10:07:04.549Z,-1.87
2022-12-11T10:09:47.994Z,-1.89
2022-12-11T10:12:32.236Z,-1.82
2022-12-11T10:15:19.871Z,-2.04
2022-12-11T10:17:55.410Z,-2.01
2022-12-11T10:20:33.003Z,-1.93
2022-12-11T10:23:03.757Z,-1.84
2022-12-11T10:25:37.364Z,-1.84
2022-12-11T10:28:15.915Z,-1.82
2022-12-11T10:30:51.785Z,-1.82
2022-12-11T10:33:38.388Z,-1.77
2022-12-11T10:36:13.530Z,-1.75
2022-12-11T10:38:48.241Z,-1.74
2022-12-11T10:41:24.571Z,-1.79
2022-12-11T10:43:56.386Z,-1.76
2022-12-11T10:46:28.949Z,-1.78
2022-12-11T10:49:03.308Z,-1.77
2022-12-11T10:51:38.757Z,-1.76
2022-12-11T10:54:19.511Z,-1.71
2022-12-11T10:56:52.094Z,-1.77
2022-12-11T10:59:27.349Z,-1.77
2022-12-11T11:01:57.985Z,-1.84
2022-12-11T11:04:35.218Z,-1.75
2022-12-11T11:07:14.345Z,-1.78
2022-12-11T11:09:44.660Z,-1.77
2022-12-11T11:12:26.202Z,-1.72
2022-12-11T11:15:04.126Z,-1.74
2022-12-11T11:17:40.521Z,-1.76
2022-12-11T11:20:22.028Z,-1.79
2022-12-11T11:22:55.785Z,-1.87
2022-12-11T11:25:28.088Z,-1.92
2022-12-11T11:28:00.136Z,-1.91
2022-12-11T11:30:32.199Z,-1.90
2022-12-11T11:33:07.253Z,-1.86
2022-12-11T11:35:45.518Z,-1.92
2022-12-11T11:38:20.664Z,-1.88
2022-12-11T11:41:04.224Z,-1.83
2022-12-11T11:43:41.509Z,-1.88
2022-12-11T11:46:17.392Z,-1.82
2022-12-11T11:48:57.125Z,-1.81
2022-12-11T11:51:37.034Z,-1.82
2022-12-11T11:54:23.394Z,-1.77
2022-12-11T12:00:30.369Z,-1.77
2022-12-11T12:03:13.111Z,-1.72
2022-12-11T12:05:52.890Z,-1.74
2022-12-11T12:08:43.371Z,-1.76
2022-12-11T12:11:39.943Z,-1.76
2022-12-11T12:14:50.527Z,-1.77
2022-12-11T12:17:24.617Z,-1.92
2022-12-11T12:20:11.341Z,-1.89
2022-12-11T12:22:58.180Z,-1.90
2022-12-11T12:26:43.404Z,-1.92
2022-12-11T12:41:40.779Z,-1.75
2022-12-11T12:52:54.732Z,-1.79
2022-12-11T13:14:34.639Z,-1.81
2022-12-11T13:17:27.178Z,-1.85
2022-12-11T13:20:17.965Z,-1.76
2022-12-11T13:22:58.191Z,-1.65
2022-12-11T13:25:33.049Z,-1.77
2022-12-11T13:28:09.969Z,-1.79
2022-12-11T13:30:44.066Z,-1.76
2022-12-11T13:33:20.655Z,-1.76
2022-12-11T13:35:51.294Z,-1.81
2022-12-11T13:38:23.447Z,-1.76
2022-12-11T13:40:57.703Z,-1.70
2022-12-11T13:43:31.462Z,-1.69
2022-12-11T13:46:06.818Z,-1.66
2022-12-11T13:48:40.692Z,-1.66
2022-12-11T13:51:11.533Z,-1.62
2022-12-11T13:53:41.567Z,-1.62
2022-12-11T13:56:20.109Z,-1.66
2022-12-11T13:58:50.519Z,-1.69
2022-12-11T14:01:27.475Z,-1.66
2022-12-11T14:03:59.650Z,-1.66
2022-12-11T14:06:30.891Z,-1.63
2022-12-11T14:09:03.368Z,-1.62
2022-12-11T14:11:37.732Z,-1.60
2022-12-11T14:14:18.102Z,-1.75
2022-12-11T14:16:54.407Z,-1.76
2022-12-11T14:19:26.028Z,-1.77
2022-12-11T14:22:04.614Z,-1.81
2022-12-11T14:24:35.898Z,-1.79
2022-12-11T14:27:26.495Z,-1.80
2022-12-11T14:29:58.614Z,-1.76
2022-12-11T14:32:37.634Z,-1.83
2022-12-11T14:35:16.481Z,-1.81
2022-12-11T14:38:12.924Z,-1.78
2022-12-11T14:40:50.059Z,-1.82
2022-12-11T14:43:29.112Z,-1.97
2022-12-11T14:46:04.770Z,-1.91
2022-12-11T14:48:45.461Z,-1.83
2022-12-11T14:51:45.303Z,-1.81
2022-12-11T14:54:53.850Z,-1.86
2022-12-11T14:57:29.238Z,-1.84
2022-12-11T15:00:00.616Z,-1.82
2022-12-11T15:02:33.340Z,-1.85
2022-12-11T15:05:21.740Z,-1.82
2022-12-11T15:08:01.668Z,-1.82
2022-12-11T15:10:38.817Z,-1.78
2022-12-11T15:13:10.237Z,-1.80
2022-12-11T15:15:46.616Z,-1.76
2022-12-11T15:18:23.573Z,-1.75
2022-12-11T15:20:59.215Z,-1.76
2022-12-11T15:23:29.746Z,-1.77
2022-12-11T15:26:02.177Z,-1.76
2022-12-11T15:28:36.050Z,-1.76
2022-12-11T15:31:28.604Z,-1.82
2022-12-11T15:33:58.831Z,-1.92
2022-12-11T15:36:35.069Z,-1.80
2022-12-11T15:39:08.701Z,-1.78
2022-12-11T15:41:39.444Z,-1.76
2022-12-11T15:44:11.902Z,-1.78
2022-12-11T15:46:43.297Z,-1.76
2022-12-11T15:49:15.561Z,-1.80
2022-12-11T15:51:48.995Z,-1.86
2022-12-11T15:54:19.297Z,-1.80
2022-12-11T15:56:49.930Z,-1.80
2022-12-11T15:59:20.545Z,-1.80
2022-12-11T16:01:51.900Z,-1.75
2022-12-11T16:04:22.014Z,-1.73
2022-12-11T16:06:55.387Z,-1.79
2022-12-11T16:09:25.581Z,-1.77
2022-12-11T16:11:57.389Z,-1.85
2022-12-11T16:14:29.373Z,-1.79
2022-12-11T16:17:00.027Z,-1.83
2022-12-11T16:19:30.311Z,-1.89
2022-12-11T16:22:03.691Z,-1.83
2022-12-11T16:24:36.103Z,-1.82
2022-12-11T16:27:07.604Z,-1.86
2022-12-11T16:29:54.582Z,-1.90
2022-12-11T16:32:25.691Z,-1.91
2022-12-11T16:34:55.972Z,-1.92
2022-12-11T16:37:29.296Z,-1.89
2022-12-11T16:40:00.202Z,-1.86
2022-12-11T16:42:47.959Z,-1.88
2022-12-11T16:45:29.429Z,-1.85
2022-12-11T16:48:13.816Z,-2.02
2022-12-11T16:50:43.925Z,-1.94
2022-12-11T16:53:17.804Z,-2.02
2022-12-11T16:55:48.281Z,-1.97
2022-12-11T16:58:20.119Z,-1.93
2022-12-11T17:00:53.367Z,-1.94
2022-12-11T17:03:23.805Z,-1.93
2022-12-11T17:05:53.912Z,-1.90
2022-12-11T17:08:29.007Z,-1.90
2022-12-11T17:11:00.095Z,-1.95
2022-12-11T17:14:43.673Z,-1.93
2022-12-11T17:22:43.787Z,-1.94
2022-12-11T17:25:30.544Z,-2.00
2022-12-11T17:28:07.312Z,-1.94
2022-12-11T17:30:53.457Z,-1.94
2022-12-11T17:33:52.802Z,-1.99
2022-12-11T17:36:30.983Z,-1.94
2022-12-11T17:39:01.171Z,-1.95
2022-12-11T17:41:34.416Z,-1.93
2022-12-11T17:44:04.503Z,-1.92
2022-12-11T17:46:35.364Z,-1.88
2022-12-11T17:49:06.303Z,-1.82
2022-12-11T17:51:36.858Z,-1.86
2022-12-11T17:54:07.378Z,-1.91
2022-12-11T17:56:40.645Z,-1.86
2022-12-11T17:59:10.882Z,-1.86
2022-12-11T18:01:41.390Z,-1.89
2022-12-11T18:04:11.654Z,-1.86
2022-12-11T18:06:42.444Z,-1.85
2022-12-11T18:09:12.827Z,-1.89
2022-12-11T18:11:45.839Z,-1.85
2022-12-11T18:14:28.535Z,-1.83
2022-12-11T18:17:25.303Z,-1.88
2022-12-11T18:20:20.214Z,-1.88
2022-12-11T18:31:21.103Z,-1.96
2022-12-11T18:35:05.124Z,-1.88
2022-12-11T18:37:36.202Z,-1.92
2022-12-11T18:40:08.577Z,-1.95
2022-12-11T18:42:40.112Z,-1.93
2022-12-11T18:45:20.198Z,-1.95
2022-12-11T18:47:55.710Z,-1.93
2022-12-11T18:50:25.769Z,-1.93
2022-12-11T18:52:58.905Z,-1.91
2022-12-11T18:56:00.100Z,-1.88
2022-12-11T19:03:23.653Z,-1.93
2022-12-11T19:06:09.193Z,-2.03
2022-12-11T19:08:41.478Z,-1.97
2022-12-11T19:11:12.475Z,-1.97
2022-12-11T19:13:44.674Z,-1.97
2022-12-11T19:16:20.612Z,-1.96
2022-12-11T19:18:51.300Z,-2.03
2022-12-11T19:21:31.882Z,-2.04
2022-12-11T19:24:05.567Z,-1.96
2022-12-11T19:26:41.932Z,-1.98
2022-12-11T19:29:22.560Z,-2.05
2022-12-11T19:31:56.491Z,-2.08
2022-12-11T19:34:28.881Z,-2.04
2022-12-11T19:37:18.503Z,-2.04
2022-12-11T19:40:10.949Z,-2.05
2022-12-11T19:42:52.807Z,-2.04
2022-12-11T20:04:23.939Z,-2.00
2022-12-11T20:07:02.294Z,-1.97
2022-12-11T20:14:11.579Z,-1.95
2022-12-11T20:17:18.471Z,-1.98
2022-12-11T20:27:38.354Z,-1.97
2022-12-11T20:38:04.702Z,-2.04
2022-12-11T20:40:52.838Z,-2.06
2022-12-11T20:43:27.893Z,-2.06
2022-12-11T20:46:43.356Z,-2.03
2022-12-11T21:13:53.236Z,-2.02
2022-12-11T21:16:47.308Z,-2.11
2022-12-11T21:20:32.555Z,-2.05
2022-12-11T21:30:52.704Z,-2.11
2022-12-11T21:34:25.382Z,-2.12
2022-12-11T21:52:26.494Z,-2.23
2022-12-11T21:55:39.941Z,-2.19
2022-12-11T22:05:21.156Z,-2.28
2022-12-11T22:08:20.017Z,-2.30
2022-12-11T22:11:47.773Z,-2.26
2022-12-11T22:14:39.105Z,-2.36
2022-12-11T22:17:19.298Z,-2.36
2022-12-11T22:20:04.012Z,-2.35
2022-12-11T22:22:42.897Z,-2.43
2022-12-11T22:25:14.252Z,-2.37
2022-12-11T22:27:51.382Z,-2.26
2022-12-11T22:30:36.518Z,-2.27
2022-12-11T22:33:46.420Z,-2.21
2022-12-11T22:36:26.225Z,-2.20
2022-12-11T22:38:58.962Z,-2.16
2022-12-11T22:41:31.989Z,-2.10
2022-12-11T22:44:08.501Z,-2.14
2022-12-11T22:46:51.970Z,-2.10
2022-12-11T22:49:37.576Z,-2.09
2022-12-11T22:52:08.720Z,-2.10
2022-12-11T22:55:03.964Z,-2.07
2022-12-11T22:57:39.304Z,-2.12
2022-12-11T23:00:21.051Z,-2.10
2022-12-11T23:02:51.696Z,-2.09
2022-12-11T23:05:24.690Z,-2.07
2022-12-11T23:08:12.934Z,-2.08
2022-12-11T23:10:51.185Z,-2.09
2022-12-11T23:13:38.064Z,-2.15
2022-12-11T23:16:09.165Z,-2.10
2022-12-11T23:18:42.317Z,-2.12
2022-12-11T23:21:18.167Z,-2.09
2022-12-11T23:23:48.205Z,-2.06
2022-12-11T23:26:30.756Z,-2.06
2022-12-11T23:29:02.094Z,-2.09
2022-12-11T23:31:56.294Z,-2.11
2022-12-11T23:34:30.062Z,-2.09
2022-12-11T23:37:17.153Z,-2.11
2022-12-11T23:40:14.876Z,-2.09
2022-12-11T23:43:01.902Z,-2.08
2022-12-11T23:45:47.236Z,-2.09
2022-12-11T23:48:18.861Z,-2.09
2022-12-11T23:50:52.139Z,-2.24
2022-12-11T23:53:53.732Z,-2.19
2022-12-11T23:56:35.143Z,-2.26
2022-12-11T23:59:29.969Z,-2.41
